sensor_id;sensor_type;location;lat;lon;timestamp;pressure;altitude;pressure_sealevel;temperature;humidity
2036;BME280;23642;42.658;23.350;2023-06-22T00:02:09;51781.44;;;-146.31;99.41
2036;BME280;23642;42.658;23.350;2023-06-22T00:04:44;51744.31;;;-146.31;99.99
2036;BME280;23642;42.658;23.350;2023-06-22T00:07:11;51715.41;;;-146.31;100.00
2036;BME280;23642;42.658;23.350;2023-06-22T00:09:46;51690.66;;;-146.31;100.00
2036;BME280;23642;42.658;23.350;2023-06-22T00:12:13;51657.66;;;-146.31;100.00
2036;BME280;23642;42.658;23.350;2023-06-22T00:14:40;51637.00;;;-146.31;100.00
2036;BME280;23642;42.658;23.350;2023-06-22T00:17:12;51645.28;;;-146.31;100.00
2036;BME280;23642;42.658;23.350;2023-06-22T00:19:48;51601.94;;;-146.31;100.00
2036;BME280;23642;42.658;23.350;2023-06-22T00:22:19;51587.50;;;-146.31;100.00
2036;BME280;23642;42.658;23.350;2023-06-22T00:25:12;51581.31;;;-146.31;100.00
2036;BME280;23642;42.658;23.350;2023-06-22T00:27:48;51564.81;;;-146.31;100.00
2036;BME280;23642;42.658;23.350;2023-06-22T00:30:20;51542.13;;;-146.31;100.00
2036;BME280;23642;42.658;23.350;2023-06-22T00:32:50;51511.16;;;-146.31;100.00
2036;BME280;23642;42.658;23.350;2023-06-22T00:35:22;51496.72;;;-146.31;100.00
2036;BME280;23642;42.658;23.350;2023-06-22T00:37:55;51504.97;;;-146.31;100.00
2036;BME280;23642;42.658;23.350;2023-06-22T00:40:27;51517.34;;;-146.31;100.00
2036;BME280;23642;42.658;23.350;2023-06-22T00:42:54;51535.94;;;-146.31;100.00
2036;BME280;23642;42.658;23.350;2023-06-22T00:45:25;51527.66;;;-146.31;100.00
2036;BME280;23642;42.658;23.350;2023-06-22T00:47:56;51509.09;;;-146.31;100.00
2036;BME280;23642;42.658;23.350;2023-06-22T00:50:26;51459.59;;;-146.31;100.00
2036;BME280;23642;42.658;23.350;2023-06-22T00:52:56;51507.03;;;-146.31;100.00
2036;BME280;23642;42.658;23.350;2023-06-22T00:55:25;51500.84;;;-146.31;100.00
2036;BME280;23642;42.658;23.350;2023-06-22T00:57:58;51488.47;;;-146.31;100.00
2036;BME280;23642;42.658;23.350;2023-06-22T01:00:26;51484.34;;;-146.31;100.00
2036;BME280;23642;42.658;23.350;2023-06-22T01:03:01;51552.44;;;-146.31;99.74
2036;BME280;23642;42.658;23.350;2023-06-22T01:05:37;51538.00;;;-146.31;100.00
2036;BME280;23642;42.658;23.350;2023-06-22T01:08:29;51573.06;;;-146.31;100.00
2036;BME280;23642;42.658;23.350;2023-06-22T01:11:10;51637.00;;;-146.31;99.18
2036;BME280;23642;42.658;23.350;2023-06-22T01:13:59;51674.16;;;-146.31;96.87
2036;BME280;23642;42.658;23.350;2023-06-22T01:16:40;51814.44;;;-146.31;95.34
2036;BME280;23642;42.658;23.350;2023-06-22T01:19:25;51787.63;;;-146.31;95.68
2036;BME280;23642;42.658;23.350;2023-06-22T01:21:56;51758.75;;;-146.31;97.31
2036;BME280;23642;42.658;23.350;2023-06-22T01:24:38;51729.84;;;-146.31;98.23
2036;BME280;23642;42.658;23.350;2023-06-22T01:27:18;51752.56;;;-146.31;98.61
2036;BME280;23642;42.658;23.350;2023-06-22T01:29:51;51719.53;;;-146.31;99.08
2036;BME280;23642;42.658;23.350;2023-06-22T01:32:20;51688.59;;;-146.31;99.06
2036;BME280;23642;42.658;23.350;2023-06-22T01:34:49;51731.91;;;-146.31;99.09
2036;BME280;23642;42.658;23.350;2023-06-22T01:37:17;51707.16;;;-146.31;99.45
2036;BME280;23642;42.658;23.350;2023-06-22T01:39:45;51667.97;;;-146.31;99.66
2036;BME280;23642;42.658;23.350;2023-06-22T01:42:13;51674.16;;;-146.31;99.91
2036;BME280;23642;42.658;23.350;2023-06-22T01:44:41;51663.84;;;-146.31;100.00
2036;BME280;23642;42.658;23.350;2023-06-22T01:47:13;51643.19;;;-146.31;100.00
2036;BME280;23642;42.658;23.350;2023-06-22T01:49:43;51620.50;;;-146.31;100.00
2036;BME280;23642;42.658;23.350;2023-06-22T01:52:16;51630.81;;;-146.31;100.00
2036;BME280;23642;42.658;23.350;2023-06-22T01:54:43;51568.94;;;-146.31;100.00
2036;BME280;23642;42.658;23.350;2023-06-22T01:57:35;51577.19;;;-146.31;100.00
2036;BME280;23642;42.658;23.350;2023-06-22T02:00:09;51571.00;;;-146.31;100.00
2036;BME280;23642;42.658;23.350;2023-06-22T02:02:50;51548.31;;;-146.31;100.00
2036;BME280;23642;42.658;23.350;2023-06-22T02:05:33;51523.53;;;-146.31;100.00
2036;BME280;23642;42.658;23.350;2023-06-22T02:08:21;51476.09;;;-146.31;100.00
2036;BME280;23642;42.658;23.350;2023-06-22T02:10:51;51552.44;;;-146.31;100.00
2036;BME280;23642;42.658;23.350;2023-06-22T02:13:26;51521.47;;;-146.31;100.00
2036;BME280;23642;42.658;23.350;2023-06-22T02:15:59;51521.47;;;-146.31;100.00
2036;BME280;23642;42.658;23.350;2023-06-22T02:18:39;51484.34;;;-146.31;100.00
2036;BME280;23642;42.658;23.350;2023-06-22T02:21:18;51517.34;;;-146.31;100.00
2036;BME280;23642;42.658;23.350;2023-06-22T02:23:47;51467.84;;;-146.31;100.00
2036;BME280;23642;42.658;23.350;2023-06-22T02:26:19;51457.53;;;-146.31;100.00
2036;BME280;23642;42.658;23.350;2023-06-22T02:28:52;51436.91;;;-146.31;100.00
2036;BME280;23642;42.658;23.350;2023-06-22T02:31:32;51434.84;;;-146.31;100.00
2036;BME280;23642;42.658;23.350;2023-06-22T02:34:08;51478.16;;;-146.31;100.00
2036;BME280;23642;42.658;23.350;2023-06-22T02:36:44;51482.28;;;-146.31;100.00
2036;BME280;23642;42.658;23.350;2023-06-22T02:39:17;51457.53;;;-146.31;100.00
2036;BME280;23642;42.658;23.350;2023-06-22T02:41:44;51438.97;;;-146.31;100.00
2036;BME280;23642;42.658;23.350;2023-06-22T02:44:36;51469.91;;;-146.31;100.00
2036;BME280;23642;42.658;23.350;2023-06-22T02:47:30;51432.78;;;-146.31;100.00
2036;BME280;23642;42.658;23.350;2023-06-22T02:53:35;51387.38;;;-146.31;100.00
2036;BME280;23642;42.658;23.350;2023-06-22T02:56:24;51327.56;;;-146.31;100.00
2036;BME280;23642;42.658;23.350;2023-06-22T02:58:55;51342.00;;;-146.31;100.00
2036;BME280;23642;42.658;23.350;2023-06-22T03:01:26;51370.88;;;-146.31;100.00
2036;BME280;23642;42.658;23.350;2023-06-22T03:03:58;51393.56;;;-146.31;100.00
2036;BME280;23642;42.658;23.350;2023-06-22T03:06:33;51391.50;;;-146.31;100.00
2036;BME280;23642;42.658;23.350;2023-06-22T03:09:18;51480.22;;;-146.31;99.69
2036;BME280;23642;42.658;23.350;2023-06-22T03:11:47;51471.97;;;-146.31;99.31
2036;BME280;23642;42.658;23.350;2023-06-22T03:14:25;51447.22;;;-146.31;100.00
2036;BME280;23642;42.658;23.350;2023-06-22T03:17:05;51438.97;;;-146.31;100.00
2036;BME280;23642;42.658;23.350;2023-06-22T03:19:39;51424.53;;;-146.31;100.00
2036;BME280;23642;42.658;23.350;2023-06-22T03:22:11;51397.69;;;-146.31;100.00
2036;BME280;23642;42.658;23.350;2023-06-22T03:24:42;51395.63;;;-146.31;100.00
2036;BME280;23642;42.658;23.350;2023-06-22T03:27:16;51366.75;;;-146.31;100.00
2036;BME280;23642;42.658;23.350;2023-06-22T03:29:50;51383.25;;;-146.31;99.76
2036;BME280;23642;42.658;23.350;2023-06-22T03:32:18;51393.56;;;-146.31;99.06
2036;BME280;23642;42.658;23.350;2023-06-22T03:34:53;51399.75;;;-146.31;99.15
2036;BME280;23642;42.658;23.350;2023-06-22T03:37:26;51381.19;;;-146.31;99.01
2036;BME280;23642;42.658;23.350;2023-06-22T03:39:58;51410.06;;;-146.31;98.39
2036;BME280;23642;42.658;23.350;2023-06-22T03:42:33;51391.50;;;-146.31;98.74
2036;BME280;23642;42.658;23.350;2023-06-22T03:45:10;51403.88;;;-146.31;98.14
2036;BME280;23642;42.658;23.350;2023-06-22T03:47:41;51408.00;;;-146.31;97.95
2036;BME280;23642;42.658;23.350;2023-06-22T03:50:09;51405.94;;;-146.31;97.49
2036;BME280;23642;42.658;23.350;2023-06-22T03:52:48;51397.69;;;-146.31;97.31
2036;BME280;23642;42.658;23.350;2023-06-22T03:55:22;51403.88;;;-146.31;96.71
2036;BME280;23642;42.658;23.350;2023-06-22T03:57:54;51401.81;;;-146.31;96.92
2036;BME280;23642;42.658;23.350;2023-06-22T04:00:24;51428.66;;;-146.31;96.70
2036;BME280;23642;42.658;23.350;2023-06-22T04:03:07;51377.06;;;-146.31;96.29
2036;BME280;23642;42.658;23.350;2023-06-22T04:05:57;51422.47;;;-146.31;95.93
2036;BME280;23642;42.658;23.350;2023-06-22T04:08:24;51455.47;;;-146.31;96.32
2036;BME280;23642;42.658;23.350;2023-06-22T04:11:05;51438.97;;;-146.31;96.34
2036;BME280;23642;42.658;23.350;2023-06-22T04:13:50;51438.97;;;-146.31;96.32
2036;BME280;23642;42.658;23.350;2023-06-22T04:16:26;51405.94;;;-146.31;95.97
2036;BME280;23642;42.658;23.350;2023-06-22T04:18:57;51393.56;;;-146.31;95.49
2036;BME280;23642;42.658;23.350;2023-06-22T04:21:52;51432.78;;;-146.31;94.61
2036;BME280;23642;42.658;23.350;2023-06-22T04:24:48;51471.97;;;-146.31;93.94
2036;BME280;23642;42.658;23.350;2023-06-22T04:27:20;51443.09;;;-146.31;93.61
2036;BME280;23642;42.658;23.350;2023-06-22T04:29:56;51430.72;;;-146.31;92.69
2036;BME280;23642;42.658;23.350;2023-06-22T04:32:30;51455.47;;;-146.31;92.57
2036;BME280;23642;42.658;23.350;2023-06-22T04:35:23;51401.81;;;-146.31;92.19
2036;BME280;23642;42.658;23.350;2023-06-22T04:37:53;51381.19;;;-146.31;92.09
2036;BME280;23642;42.658;23.350;2023-06-22T04:40:26;51414.22;;;-146.31;91.84
2036;BME280;23642;42.658;23.350;2023-06-22T04:42:57;51410.06;;;-146.31;92.21
2036;BME280;23642;42.658;23.350;2023-06-22T04:45:46;51463.72;;;-146.31;90.79
2036;BME280;23642;42.658;23.350;2023-06-22T04:48:22;51474.03;;;-146.31;90.51
2036;BME280;23642;42.658;23.350;2023-06-22T04:51:05;51500.84;;;-146.31;89.36
2036;BME280;23642;42.658;23.350;2023-06-22T04:53:42;51509.09;;;-146.31;88.99
2036;BME280;23642;42.658;23.350;2023-06-22T04:56:13;51521.47;;;-146.31;88.96
2036;BME280;23642;42.658;23.350;2023-06-22T04:59:16;51502.91;;;-146.31;88.84
2036;BME280;23642;42.658;23.350;2023-06-22T05:02:07;51445.16;;;-146.31;88.20
2036;BME280;23642;42.658;23.350;2023-06-22T05:04:46;51410.06;;;-146.31;88.75
2036;BME280;23642;42.658;23.350;2023-06-22T05:07:24;51471.97;;;-146.31;88.90
2036;BME280;23642;42.658;23.350;2023-06-22T05:09:57;51461.66;;;-146.31;86.50
2036;BME280;23642;42.658;23.350;2023-06-22T05:12:28;51469.91;;;-146.31;85.17
2036;BME280;23642;42.658;23.350;2023-06-22T05:15:20;51593.69;;;-146.31;84.42
2036;BME280;23642;42.658;23.350;2023-06-22T05:18:02;51525.59;;;-146.31;83.71
2036;BME280;23642;42.658;23.350;2023-06-22T05:20:34;51523.53;;;-146.31;83.63
2036;BME280;23642;42.658;23.350;2023-06-22T05:23:07;51434.84;;;-146.31;82.54
2036;BME280;23642;42.658;23.350;2023-06-22T05:25:50;51428.66;;;-146.31;81.77
2036;BME280;23642;42.658;23.350;2023-06-22T05:28:39;51546.25;;;-146.31;81.45
2036;BME280;23642;42.658;23.350;2023-06-22T05:31:41;51482.28;;;-146.31;80.75
2036;BME280;23642;42.658;23.350;2023-06-22T05:34:11;51465.78;;;-146.31;79.34
2036;BME280;23642;42.658;23.350;2023-06-22T05:36:48;51478.16;;;-146.31;79.57
2036;BME280;23642;42.658;23.350;2023-06-22T05:39:20;51451.34;;;-146.31;79.37
2036;BME280;23642;42.658;23.350;2023-06-22T05:41:54;51533.84;;;-146.31;79.82
2036;BME280;23642;42.658;23.350;2023-06-22T05:44:52;51422.47;;;-146.31;77.27
2036;BME280;23642;42.658;23.350;2023-06-22T05:47:39;51426.59;;;-146.31;76.70
2036;BME280;23642;42.658;23.350;2023-06-22T05:50:09;51315.19;;;-146.31;75.32
2036;BME280;23642;42.658;23.350;2023-06-22T05:52:39;51430.72;;;-146.31;75.48
2036;BME280;23642;42.658;23.350;2023-06-22T05:55:10;51463.72;;;-146.31;76.19
2036;BME280;23642;42.658;23.350;2023-06-22T05:57:47;51484.34;;;-146.31;77.53
2036;BME280;23642;42.658;23.350;2023-06-22T06:00:18;51424.53;;;-146.31;77.53
2036;BME280;23642;42.658;23.350;2023-06-22T06:02:53;51346.13;;;-146.31;76.06
2036;BME280;23642;42.658;23.350;2023-06-22T06:05:29;51327.56;;;-146.31;73.84
2036;BME280;23642;42.658;23.350;2023-06-22T06:08:03;51294.56;;;-146.31;73.79
2036;BME280;23642;42.658;23.350;2023-06-22T06:10:45;51356.44;;;-146.31;73.84
2036;BME280;23642;42.658;23.350;2023-06-22T06:13:14;51269.81;;;-146.31;72.41
2036;BME280;23642;42.658;23.350;2023-06-22T06:19:32;51315.19;;;-146.31;71.10
2036;BME280;23642;42.658;23.350;2023-06-22T06:22:17;51412.16;;;-146.31;70.27
2036;BME280;23642;42.658;23.350;2023-06-22T06:24:59;51354.38;;;-146.31;70.12
2036;BME280;23642;42.658;23.350;2023-06-22T06:27:50;51286.31;;;-146.31;68.91
2036;BME280;23642;42.658;23.350;2023-06-22T06:30:30;51236.78;;;-146.31;67.35
2036;BME280;23642;42.658;23.350;2023-06-22T06:40:11;51164.59;;;-146.31;62.77
2036;BME280;23642;42.658;23.350;2023-06-22T06:47:08;51119.22;;;-146.31;55.68
2036;BME280;23642;42.658;23.350;2023-06-22T06:49:45;51110.97;;;-146.31;56.66
2036;BME280;23642;42.658;23.350;2023-06-22T06:53:03;51125.41;;;-146.31;56.31
2036;BME280;23642;42.658;23.350;2023-06-22T06:56:32;51080.03;;;-146.31;53.43
2036;BME280;23642;42.658;23.350;2023-06-22T07:03:01;51232.66;;;-146.31;52.04
2036;BME280;23642;42.658;23.350;2023-06-22T07:09:37;51424.53;;;-146.31;52.56
2036;BME280;23642;42.658;23.350;2023-06-22T07:12:51;51480.22;;;-146.31;52.79
2036;BME280;23642;42.658;23.350;2023-06-22T07:15:54;51430.72;;;-146.31;53.19
2036;BME280;23642;42.658;23.350;2023-06-22T07:22:25;51509.09;;;-146.31;54.03
2036;BME280;23642;42.658;23.350;2023-06-22T07:25:47;51639.06;;;-146.31;53.76
2036;BME280;23642;42.658;23.350;2023-06-22T07:32:28;51756.69;;;-146.31;54.67
2036;BME280;23642;42.658;23.350;2023-06-22T07:35:28;51604.00;;;-146.31;54.02
2036;BME280;23642;42.658;23.350;2023-06-22T07:38:31;51595.75;;;-146.31;53.23
2036;BME280;23642;42.658;23.350;2023-06-22T07:41:22;51484.34;;;-146.31;53.18
2036;BME280;23642;42.658;23.350;2023-06-22T07:44:32;51657.66;;;-146.31;54.15
2036;BME280;23642;42.658;23.350;2023-06-22T07:47:20;51655.59;;;-146.31;53.01
2036;BME280;23642;42.658;23.350;2023-06-22T07:53:56;51529.72;;;-146.31;51.36
2036;BME280;23642;42.658;23.350;2023-06-22T07:56:46;51352.31;;;-146.31;50.37
2036;BME280;23642;42.658;23.350;2023-06-22T07:59:14;51344.06;;;-146.31;48.88
2036;BME280;23642;42.658;23.350;2023-06-22T08:01:50;51311.06;;;-146.31;48.71
2036;BME280;23642;42.658;23.350;2023-06-22T08:08:31;51707.16;;;-146.31;47.96
2036;BME280;23642;42.658;23.350;2023-06-22T08:14:02;51764.94;;;-146.31;50.13
2036;BME280;23642;42.658;23.350;2023-06-22T08:17:12;51771.13;;;-146.31;49.58
2036;BME280;23642;42.658;23.350;2023-06-22T08:20:01;51616.38;;;-146.31;48.36
2036;BME280;23642;42.658;23.350;2023-06-22T08:22:44;51676.22;;;-146.31;47.99
2036;BME280;23642;42.658;23.350;2023-06-22T08:25:26;51781.44;;;-146.31;48.65
2036;BME280;23642;42.658;23.350;2023-06-22T08:28:02;51857.78;;;-146.31;48.35
2036;BME280;23642;42.658;23.350;2023-06-22T08:30:46;51729.84;;;-146.31;48.35
2036;BME280;23642;42.658;23.350;2023-06-22T08:33:38;51628.75;;;-146.31;47.60
2036;BME280;23642;42.658;23.350;2023-06-22T08:36:22;51558.63;;;-146.31;47.96
2036;BME280;23642;42.658;23.350;2023-06-22T08:42:10;51729.84;;;-146.31;48.19
2036;BME280;23642;42.658;23.350;2023-06-22T08:44:56;51595.75;;;-146.31;46.88
2036;BME280;23642;42.658;23.350;2023-06-22T08:51:09;51554.50;;;-146.31;48.21
2036;BME280;23642;42.658;23.350;2023-06-22T08:57:13;52008.41;;;-146.31;51.10
2036;BME280;23642;42.658;23.350;2023-06-22T09:00:29;52012.53;;;-146.31;50.49
2036;BME280;23642;42.658;23.350;2023-06-22T09:03:16;51996.03;;;-146.31;49.85
2036;BME280;23642;42.658;23.350;2023-06-22T09:06:01;52090.94;;;-146.31;49.14
2036;BME280;23642;42.658;23.350;2023-06-22T09:08:58;51950.63;;;-146.31;48.98
2036;BME280;23642;42.658;23.350;2023-06-22T09:12:18;52126.00;;;-146.31;48.39
2036;BME280;23642;42.658;23.350;2023-06-22T09:14:31;52111.56;;;-146.31;47.83
2036;BME280;23642;42.658;23.350;2023-06-22T09:18:24;52109.50;;;-146.31;46.81
2036;BME280;23642;42.658;23.350;2023-06-22T09:23:57;52159.03;;;-146.31;46.89
2036;BME280;23642;42.658;23.350;2023-06-22T09:27:17;52144.59;;;-146.31;47.69
2036;BME280;23642;42.658;23.350;2023-06-22T09:30:03;52132.19;;;-146.31;46.59
2036;BME280;23642;42.658;23.350;2023-06-22T09:33:05;51917.63;;;-146.31;46.30
2036;BME280;23642;42.658;23.350;2023-06-22T09:36:13;51818.56;;;-146.31;45.24
2036;BME280;23642;42.658;23.350;2023-06-22T09:42:44;51905.22;;;-146.31;44.75
2036;BME280;23642;42.658;23.350;2023-06-22T09:45:25;51923.81;;;-146.31;44.99
2036;BME280;23642;42.658;23.350;2023-06-22T09:48:16;51942.38;;;-146.31;46.24
2036;BME280;23642;42.658;23.350;2023-06-22T09:50:49;51938.25;;;-146.31;44.97
2036;BME280;23642;42.658;23.350;2023-06-22T09:53:17;51954.75;;;-146.31;45.31
2036;BME280;23642;42.658;23.350;2023-06-22T09:56:13;51979.50;;;-146.31;45.55
2036;BME280;23642;42.658;23.350;2023-06-22T09:58:59;52037.28;;;-146.31;45.99
2036;BME280;23642;42.658;23.350;2023-06-22T10:01:50;51991.88;;;-146.31;46.61
2036;BME280;23642;42.658;23.350;2023-06-22T10:07:51;52010.47;;;-146.31;45.76
2036;BME280;23642;42.658;23.350;2023-06-22T10:10:50;51975.38;;;-146.31;45.06
2036;BME280;23642;42.658;23.350;2023-06-22T10:13:47;52045.53;;;-146.31;45.06
2036;BME280;23642;42.658;23.350;2023-06-22T10:17:48;51911.41;;;-146.31;43.79
2036;BME280;23642;42.658;23.350;2023-06-22T10:20:25;51932.06;;;-146.31;43.93
2036;BME280;23642;42.658;23.350;2023-06-22T10:23:19;51894.91;;;-146.31;43.60
2036;BME280;23642;42.658;23.350;2023-06-22T10:28:56;51872.22;;;-146.31;41.98
2036;BME280;23642;42.658;23.350;2023-06-22T10:31:25;51917.63;;;-146.31;41.58
2036;BME280;23642;42.658;23.350;2023-06-22T10:34:04;51727.78;;;-146.31;42.87
2036;BME280;23642;42.658;23.350;2023-06-22T10:36:57;51816.50;;;-146.31;41.18
2036;BME280;23642;42.658;23.350;2023-06-22T10:39:44;51818.56;;;-146.31;41.65
2036;BME280;23642;42.658;23.350;2023-06-22T10:42:54;51509.09;;;-146.31;41.85
2036;BME280;23642;42.658;23.350;2023-06-22T10:45:59;51886.66;;;-146.31;41.44
2036;BME280;23642;42.658;23.350;2023-06-22T10:48:43;52103.31;;;-146.31;42.47
2036;BME280;23642;42.658;23.350;2023-06-22T10:52:13;52014.59;;;-146.31;42.81
2036;BME280;23642;42.658;23.350;2023-06-22T10:54:52;51917.63;;;-146.31;42.98
2036;BME280;23642;42.658;23.350;2023-06-22T10:57:43;51839.22;;;-146.31;41.79
2036;BME280;23642;42.658;23.350;2023-06-22T11:03:49;51762.88;;;-146.31;40.83
2036;BME280;23642;42.658;23.350;2023-06-22T11:06:39;51705.09;;;-146.31;41.20
2036;BME280;23642;42.658;23.350;2023-06-22T11:09:37;51674.16;;;-146.31;40.17
2036;BME280;23642;42.658;23.350;2023-06-22T11:12:31;51622.56;;;-146.31;40.24
2036;BME280;23642;42.658;23.350;2023-06-22T11:15:20;51824.75;;;-146.31;40.69
2036;BME280;23642;42.658;23.350;2023-06-22T11:17:55;51676.22;;;-146.31;40.57
2036;BME280;23642;42.658;23.350;2023-06-22T11:24:36;51872.22;;;-146.31;40.57
2036;BME280;23642;42.658;23.350;2023-06-22T11:27:46;51649.41;;;-146.31;40.57
2036;BME280;23642;42.658;23.350;2023-06-22T11:31:04;51430.72;;;-146.31;41.51
2036;BME280;23642;42.658;23.350;2023-06-22T11:34:08;51385.31;;;-146.31;38.39
2036;BME280;23642;42.658;23.350;2023-06-22T11:37:06;51222.34;;;-146.31;37.02
2036;BME280;23642;42.658;23.350;2023-06-22T11:40:17;51445.16;;;-146.31;37.54
2036;BME280;23642;42.658;23.350;2023-06-22T11:49:52;51354.38;;;-146.31;38.55
2036;BME280;23642;42.658;23.350;2023-06-22T11:53:01;51408.00;;;-146.31;39.14
2036;BME280;23642;42.658;23.350;2023-06-22T11:56:27;51197.59;;;-146.31;36.99
2036;BME280;23642;42.658;23.350;2023-06-22T11:59:16;50945.94;;;-146.31;36.84
2036;BME280;23642;42.658;23.350;2023-06-22T12:02:16;50842.81;;;-146.31;35.36
2036;BME280;23642;42.658;23.350;2023-06-22T12:04:53;51069.69;;;-146.31;35.71
2036;BME280;23642;42.658;23.350;2023-06-22T12:08:00;51321.38;;;-146.31;36.09
2036;BME280;23642;42.658;23.350;2023-06-22T12:11:29;50997.50;;;-146.31;37.06
2036;BME280;23642;42.658;23.350;2023-06-22T12:14:28;51566.88;;;-146.31;37.60
2036;BME280;23642;42.658;23.350;2023-06-22T12:23:46;52185.84;;;-146.31;42.37
2036;BME280;23642;42.658;23.350;2023-06-22T12:43:20;52858.59;;;-146.31;51.77
2036;BME280;23642;42.658;23.350;2023-06-22T12:52:50;52778.13;;;-146.31;56.11
2036;BME280;23642;42.658;23.350;2023-06-22T12:59:08;52928.78;;;-146.31;58.39
2036;BME280;23642;42.658;23.350;2023-06-22T13:01:54;52895.75;;;-146.31;58.72
2036;BME280;23642;42.658;23.350;2023-06-22T13:05:10;52895.75;;;-146.31;58.71
2036;BME280;23642;42.658;23.350;2023-06-22T13:08:10;52885.44;;;-146.31;61.33
2036;BME280;23642;42.658;23.350;2023-06-22T13:10:58;52776.06;;;-146.31;64.35
2036;BME280;23642;42.658;23.350;2023-06-22T13:20:48;52563.47;;;-146.31;70.17
2036;BME280;23642;42.658;23.350;2023-06-22T13:23:52;52549.03;;;-146.31;72.45
2036;BME280;23642;42.658;23.350;2023-06-22T13:28:14;52532.53;;;-146.31;73.07
2036;BME280;23642;42.658;23.350;2023-06-22T13:34:25;52499.50;;;-146.31;73.28
2036;BME280;23642;42.658;23.350;2023-06-22T14:21:19;51486.41;;;-146.31;82.64
2036;BME280;23642;42.658;23.350;2023-06-22T14:31:48;51649.41;;;-146.31;81.18
2036;BME280;23642;42.658;23.350;2023-06-22T14:37:35;51575.13;;;-146.31;83.02
2036;BME280;23642;42.658;23.350;2023-06-22T14:40:22;51560.69;;;-146.31;83.89
2036;BME280;23642;42.658;23.350;2023-06-22T14:43:14;51451.34;;;-146.31;84.37
2036;BME280;23642;42.658;23.350;2023-06-22T14:45:49;51422.47;;;-146.31;83.66
2036;BME280;23642;42.658;23.350;2023-06-22T14:48:19;51379.13;;;-146.31;82.93
2036;BME280;23642;42.658;23.350;2023-06-22T14:51:01;51383.25;;;-146.31;80.84
2036;BME280;23642;42.658;23.350;2023-06-22T14:53:56;51300.75;;;-146.31;80.23
2036;BME280;23642;42.658;23.350;2023-06-22T14:57:10;51276.00;;;-146.31;78.24
2036;BME280;23642;42.658;23.350;2023-06-22T15:00:32;51309.00;;;-146.31;77.04
2036;BME280;23642;42.658;23.350;2023-06-22T15:06:39;51375.00;;;-146.31;76.95
2036;BME280;23642;42.658;23.350;2023-06-22T15:15:45;51455.47;;;-146.31;73.50
2036;BME280;23642;42.658;23.350;2023-06-22T15:18:36;51504.97;;;-146.31;72.24
2036;BME280;23642;42.658;23.350;2023-06-22T15:22:21;51467.84;;;-146.31;70.00
2036;BME280;23642;42.658;23.350;2023-06-22T15:24:58;51469.91;;;-146.31;69.44
2036;BME280;23642;42.658;23.350;2023-06-22T15:34:44;51356.44;;;-146.31;65.38
2036;BME280;23642;42.658;23.350;2023-06-22T15:37:49;51119.22;;;-146.31;61.79
2036;BME280;23642;42.658;23.350;2023-06-22T15:41:03;50803.63;;;-146.31;56.76
2036;BME280;23642;42.658;23.350;2023-06-22T15:43:46;50908.81;;;-146.31;54.21
2036;BME280;23642;42.658;23.350;2023-06-22T15:46:27;50731.44;;;-146.31;52.68
2036;BME280;23642;42.658;23.350;2023-06-22T15:49:10;50440.63;;;-146.31;49.17
2036;BME280;23642;42.658;23.350;2023-06-22T15:51:57;49739.47;;;-146.31;46.94
2036;BME280;23642;42.658;23.350;2023-06-22T15:54:36;50818.06;;;-146.31;50.16
2036;BME280;23642;42.658;23.350;2023-06-22T16:00:17;52099.19;;;-146.31;57.99
2036;BME280;23642;42.658;23.350;2023-06-22T16:02:47;52272.50;;;-146.31;60.29
2036;BME280;23642;42.658;23.350;2023-06-22T16:05:19;52305.53;;;-146.31;62.08
2036;BME280;23642;42.658;23.350;2023-06-22T16:11:06;52425.22;;;-146.31;64.51
2036;BME280;23642;42.658;23.350;2023-06-22T16:13:34;52456.19;;;-146.31;65.44
2036;BME280;23642;42.658;23.350;2023-06-22T16:16:02;52478.88;;;-146.31;65.94
2036;BME280;23642;42.658;23.350;2023-06-22T16:18:29;52480.94;;;-146.31;66.06
2036;BME280;23642;42.658;23.350;2023-06-22T16:21:06;52462.38;;;-146.31;66.64
2036;BME280;23642;42.658;23.350;2023-06-22T16:23:44;52437.59;;;-146.31;66.20
2036;BME280;23642;42.658;23.350;2023-06-22T16:26:15;52392.19;;;-146.31;66.65
2036;BME280;23642;42.658;23.350;2023-06-22T16:29:03;52336.50;;;-146.31;66.91
2036;BME280;23642;42.658;23.350;2023-06-22T16:31:57;52400.47;;;-146.31;67.23
2036;BME280;23642;42.658;23.350;2023-06-22T16:34:31;52328.22;;;-146.31;66.93
2036;BME280;23642;42.658;23.350;2023-06-22T16:37:07;52313.78;;;-146.31;65.55
2036;BME280;23642;42.658;23.350;2023-06-22T16:39:45;52161.09;;;-146.31;65.87
2036;BME280;23642;42.658;23.350;2023-06-22T16:42:29;52231.25;;;-146.31;66.39
2036;BME280;23642;42.658;23.350;2023-06-22T16:45:01;52156.97;;;-146.31;67.08
2036;BME280;23642;42.658;23.350;2023-06-22T16:47:33;52167.28;;;-146.31;65.75
2036;BME280;23642;42.658;23.350;2023-06-22T16:50:01;52256.00;;;-146.31;66.10
2036;BME280;23642;42.658;23.350;2023-06-22T16:52:31;52247.75;;;-146.31;66.08
2036;BME280;23642;42.658;23.350;2023-06-22T16:55:08;52338.56;;;-146.31;64.03
2036;BME280;23642;42.658;23.350;2023-06-22T16:57:37;52363.31;;;-146.31;64.02
2036;BME280;23642;42.658;23.350;2023-06-22T17:00:05;52334.41;;;-146.31;64.68
2036;BME280;23642;42.658;23.350;2023-06-22T17:02:43;52299.34;;;-146.31;64.63
2036;BME280;23642;42.658;23.350;2023-06-22T17:05:21;52280.78;;;-146.31;64.35
2036;BME280;23642;42.658;23.350;2023-06-22T17:08:00;52293.16;;;-146.31;64.49
2036;BME280;23642;42.658;23.350;2023-06-22T17:10:34;52361.25;;;-146.31;64.83
2036;BME280;23642;42.658;23.350;2023-06-22T17:13:04;52396.31;;;-146.31;65.53
2036;BME280;23642;42.658;23.350;2023-06-22T17:16:04;52392.19;;;-146.31;65.65
2036;BME280;23642;42.658;23.350;2023-06-22T17:19:00;52371.56;;;-146.31;64.98
2036;BME280;23642;42.658;23.350;2023-06-22T17:21:31;52431.41;;;-146.31;67.08
2036;BME280;23642;42.658;23.350;2023-06-22T17:24:01;52437.59;;;-146.31;68.66
2036;BME280;23642;42.658;23.350;2023-06-22T17:26:35;52439.66;;;-146.31;68.74